Time;durP1;ratioP1;P1;durP2;ratioP2;P2;SDS_P1;SDS_P2;PMS_P1;PMS_P2;Temp;Humidity;BMP_temperature;BMP_pressure;BME280_temperature;BME280_humidity;BME280_pressure;Samples;Min_cycle;Max_cycle;Signal;HPM_P1;HPM_P2
2022/10/29 00:00:38;;;;;;;22.58;8.18;;;12.10;99.90;;;;;;5076918;28;20021;-89
2022/10/29 00:03:04;;;;;;;26.45;8.20;;;12.00;99.90;;;;;;5087622;28;20077;-90
2022/10/29 00:05:30;;;;;;;39.72;9.88;;;11.90;99.90;;;;;;5068094;28;20669;-90
2022/10/29 00:07:55;;;;;;;23.48;8.90;;;12.00;99.90;;;;;;5079833;28;20077;-90
2022/10/29 00:10:21;;;;;;;22.77;8.82;;;12.00;99.90;;;;;;5069624;28;20040;-90
2022/10/29 00:12:47;;;;;;;17.83;8.20;;;12.00;99.90;;;;;;5068215;28;20017;-91
2022/10/29 00:15:13;;;;;;;27.48;9.02;;;12.00;99.90;;;;;;5058145;28;20029;-90
2022/10/29 00:17:39;;;;;;;33.90;8.90;;;11.90;99.90;;;;;;5068884;28;20029;-90
2022/10/29 00:20:05;;;;;;;21.90;8.50;;;11.80;99.90;;;;;;5087047;28;20039;-90
2022/10/29 00:22:31;;;;;;;21.88;8.70;;;11.70;99.90;;;;;;5080952;28;20024;-90
2022/10/29 00:24:57;;;;;;;24.15;8.63;;;11.50;99.90;;;;;;5056121;28;20778;-89
2022/10/29 00:27:23;;;;;;;37.45;10.90;;;11.40;99.90;;;;;;5085280;28;20063;-90
2022/10/29 00:29:49;;;;;;;22.25;9.00;;;11.30;99.90;;;;;;5096282;28;20087;-90
2022/10/29 00:32:14;;;;;;;25.95;8.52;;;11.20;99.90;;;;;;5070318;28;20020;-90
2022/10/29 00:34:40;;;;;;;29.33;8.70;;;11.20;99.90;;;;;;5061289;28;20025;-89
2022/10/29 00:37:06;;;;;;;20.60;9.68;;;11.20;99.90;;;;;;5062986;28;20023;-90
2022/10/29 00:39:34;;;;;;;23.17;8.68;;;11.10;99.90;;;;;;5081283;28;20108;-89
2022/10/29 00:42:00;;;;;;;22.45;8.35;;;11.10;99.90;;;;;;5063526;28;20032;-90
2022/10/29 00:44:29;;;;;;;25.40;9.45;;;11.10;99.90;;;;;;5067521;28;20491;-89
2022/10/29 00:47:03;;;;;;;14.45;8.15;;;11.20;99.90;;;;;;5080735;28;20040;-90
2022/10/29 00:49:52;;;;;;;29.35;9.93;;;11.20;99.90;;;;;;5058729;28;20024;-90
2022/10/29 00:52:21;;;;;;;22.45;8.82;;;11.20;99.90;;;;;;5063373;28;20082;-89
2022/10/29 00:54:48;;;;;;;25.23;8.60;;;11.20;99.90;;;;;;5085263;28;20024;-90
2022/10/29 00:57:20;;;;;;;22.88;9.43;;;11.10;99.90;;;;;;5067035;28;20042;-89
2022/10/29 00:59:48;;;;;;;24.83;8.75;;;11.10;99.90;;;;;;5061058;28;20052;-90
2022/10/29 01:02:14;;;;;;;23.80;8.25;;;11.10;99.90;;;;;;5078950;28;20020;-89
2022/10/29 01:05:26;;;;;;;35.20;9.25;;;11.00;99.90;;;;;;5063653;28;20067;-90
2022/10/29 01:07:52;;;;;;;32.35;10.60;;;10.90;99.90;;;;;;5055889;28;20089;-90
2022/10/29 01:10:31;;;;;;;30.75;9.60;;;10.90;99.90;;;;;;5052509;28;20032;-90
2022/10/29 01:13:14;;;;;;;24.67;10.10;;;10.90;99.90;;;;;;5058559;28;20858;-90
2022/10/29 01:15:39;;;;;;;33.08;10.57;;;10.90;99.90;;;;;;5060020;28;20036;-89
2022/10/29 01:18:12;;;;;;;27.92;10.73;;;11.00;99.90;;;;;;5078625;28;20069;-90
2022/10/29 01:20:50;;;;;;;23.63;9.85;;;11.10;99.90;;;;;;5061476;28;20472;-90
2022/10/29 01:23:15;;;;;;;20.02;9.88;;;11.10;99.90;;;;;;5079522;28;20173;-90
2022/10/29 01:25:57;;;;;;;22.17;9.88;;;11.00;99.90;;;;;;5080215;28;20128;-89
2022/10/29 01:29:00;;;;;;;31.40;10.32;;;11.00;99.90;;;;;;5075177;28;20028;-90
2022/10/29 01:31:58;;;;;;;29.23;11.45;;;10.90;99.90;;;;;;5066749;28;20024;-89
2022/10/29 01:34:38;;;;;;;24.70;11.55;;;10.90;99.90;;;;;;5046264;28;20029;-89
2022/10/29 01:37:30;;;;;;;19.95;10.50;;;10.90;99.90;;;;;;5074681;28;20510;-89
2022/10/29 01:40:27;;;;;;;23.25;10.25;;;10.80;99.90;;;;;;5095381;28;20027;-90
2022/10/29 01:43:05;;;;;;;33.08;11.02;;;10.80;99.90;;;;;;5064896;28;20115;-90
2022/10/29 01:45:43;;;;;;;29.25;11.07;;;10.70;99.90;;;;;;5063598;28;20024;-91
2022/10/29 01:48:13;;;;;;;27.92;10.45;;;10.70;99.90;;;;;;5065870;28;20387;-90
2022/10/29 01:50:43;;;;;;;29.25;11.63;;;10.60;99.90;;;;;;5079632;28;20031;-90
2022/10/29 01:53:09;;;;;;;23.63;10.97;;;10.60;99.90;;;;;;5091469;28;20078;-90
2022/10/29 01:55:35;;;;;;;25.75;11.48;;;10.60;99.90;;;;;;5073320;28;20024;-89
2022/10/29 01:58:03;;;;;;;24.83;11.13;;;10.60;99.90;;;;;;5061785;28;20105;-90
2022/10/29 02:00:39;;;;;;;23.42;10.60;;;10.60;99.90;;;;;;5105103;27;20029;-90
2022/10/29 02:03:04;;;;;;;23.33;10.88;;;10.60;99.90;;;;;;5074169;28;20028;-91
2022/10/29 02:05:45;;;;;;;26.48;10.80;;;10.60;99.90;;;;;;5088824;28;20029;-90
2022/10/29 02:08:32;;;;;;;25.80;10.37;;;10.60;99.90;;;;;;5074613;28;20021;-90
2022/10/29 02:11:10;;;;;;;20.27;11.18;;;10.70;99.90;;;;;;5056968;28;20060;-90
2022/10/29 02:14:01;;;;;;;36.95;11.20;;;10.80;99.90;;;;;;5065856;28;20033;-90
2022/10/29 02:16:27;;;;;;;20.13;11.57;;;10.80;99.90;;;;;;5080667;28;20062;-90
2022/10/29 02:22:40;;;;;;;38.67;12.75;;;10.90;99.90;;;;;;5075566;28;20048;-90
2022/10/29 02:25:07;;;;;;;25.63;11.73;;;10.90;99.90;;;;;;5086856;28;20364;-90
2022/10/29 02:27:33;;;;;;;29.20;12.40;;;10.80;99.90;;;;;;5073692;28;20033;-91
2022/10/29 02:29:59;;;;;;;25.10;11.25;;;10.80;99.90;;;;;;5072148;28;20081;-90
2022/10/29 02:32:24;;;;;;;33.63;11.98;;;10.80;99.90;;;;;;5075522;28;20020;-90
2022/10/29 02:34:50;;;;;;;28.60;12.00;;;10.70;99.90;;;;;;5092497;28;20029;-90
2022/10/29 02:37:16;;;;;;;20.52;10.40;;;10.60;99.90;;;;;;5065897;28;20688;-91
2022/10/29 02:39:41;;;;;;;22.73;11.75;;;10.60;99.90;;;;;;5064422;28;20119;-90
2022/10/29 02:42:07;;;;;;;23.58;12.02;;;10.50;99.90;;;;;;5081866;28;20020;-90
2022/10/29 02:44:48;;;;;;;35.00;14.13;;;10.50;99.90;;;;;;5107017;27;20033;-90
2022/10/29 02:47:14;;;;;;;27.27;11.43;;;10.40;99.90;;;;;;5070161;28;20028;-89
2022/10/29 02:49:39;;;;;;;28.05;12.70;;;10.50;99.90;;;;;;5109176;27;20036;-91
2022/10/29 02:52:05;;;;;;;22.60;12.02;;;10.50;99.90;;;;;;5077512;28;20016;-90
2022/10/29 02:54:31;;;;;;;31.10;13.30;;;10.50;99.90;;;;;;5083553;28;20032;-90
2022/10/29 02:56:56;;;;;;;27.95;12.52;;;10.50;99.90;;;;;;5057613;28;20025;-90
2022/10/29 03:03:10;;;;;;;32.58;13.85;;;10.50;99.90;;;;;;5067169;28;20392;-90
2022/10/29 03:05:36;;;;;;;29.92;13.70;;;10.40;99.90;;;;;;5072371;28;20025;-90
2022/10/29 03:08:08;;;;;;;37.15;16.40;;;10.50;99.90;;;;;;5070164;28;20033;-89
2022/10/29 03:10:34;;;;;;;33.38;15.07;;;10.50;99.90;;;;;;5058820;28;20029;-90
2022/10/29 03:13:00;;;;;;;37.55;16.35;;;10.50;99.90;;;;;;5072639;28;20031;-90
2022/10/29 03:15:26;;;;;;;35.13;15.18;;;10.60;99.90;;;;;;5074122;28;20492;-90
2022/10/29 03:17:52;;;;;;;35.30;15.73;;;10.70;99.90;;;;;;5092718;28;20044;-91
2022/10/29 03:20:18;;;;;;;31.33;14.93;;;10.70;99.90;;;;;;5080123;28;20028;-91
2022/10/29 03:22:43;;;;;;;39.75;16.55;;;10.80;99.90;;;;;;5091108;28;20606;-90
2022/10/29 03:25:09;;;;;;;32.83;15.52;;;10.90;99.90;;;;;;5085788;28;20033;-90
2022/10/29 03:27:43;;;;;;;41.58;14.40;;;10.90;99.90;;;;;;5073923;28;20617;-90
2022/10/29 03:30:10;;;;;;;36.50;14.90;;;11.00;99.90;;;;;;5075009;28;20052;-91
2022/10/29 03:32:40;;;;;;;35.88;14.95;;;11.00;99.90;;;;;;5079202;28;20033;-90
2022/10/29 03:35:07;;;;;;;40.78;14.98;;;11.00;99.90;;;;;;5081514;28;20024;-90
2022/10/29 03:37:33;;;;;;;40.95;14.77;;;11.00;99.90;;;;;;5063906;28;20021;-90
2022/10/29 03:39:59;;;;;;;37.38;15.68;;;11.00;99.90;;;;;;5064861;28;20077;-90
2022/10/29 03:42:24;;;;;;;41.10;15.05;;;11.10;99.90;;;;;;5068556;28;20028;-90
2022/10/29 03:44:50;;;;;;;35.33;15.57;;;11.10;99.90;;;;;;5080584;28;20743;-90
2022/10/29 03:47:16;;;;;;;40.75;15.10;;;11.20;99.90;;;;;;5089887;28;20024;-90
2022/10/29 03:49:41;;;;;;;45.50;16.92;;;11.20;99.90;;;;;;5096552;28;20040;-90
2022/10/29 03:52:07;;;;;;;40.35;15.23;;;11.10;99.90;;;;;;5080373;28;20114;-90
2022/10/29 03:54:32;;;;;;;43.42;16.40;;;11.00;99.90;;;;;;5068776;28;20068;-90
2022/10/29 03:56:58;;;;;;;44.30;16.35;;;10.90;99.90;;;;;;5086555;28;20036;-91
2022/10/29 03:59:24;;;;;;;45.72;16.65;;;10.90;99.90;;;;;;5066078;28;20036;-90
2022/10/29 04:01:49;;;;;;;46.45;17.35;;;10.90;99.90;;;;;;5059429;28;20023;-90
2022/10/29 04:04:15;;;;;;;47.22;16.73;;;10.90;99.90;;;;;;5083559;28;20020;-90
2022/10/29 04:06:41;;;;;;;38.03;14.98;;;11.00;99.90;;;;;;5062350;28;20483;-90
2022/10/29 04:09:06;;;;;;;33.58;14.80;;;10.90;99.90;;;;;;5084350;28;20536;-90
2022/10/29 04:11:32;;;;;;;41.15;14.45;;;10.90;99.90;;;;;;5081128;28;20551;-90
2022/10/29 04:13:58;;;;;;;34.95;14.13;;;10.80;99.90;;;;;;5068259;28;20479;-90
2022/10/29 04:16:23;;;;;;;43.85;15.65;;;10.80;99.90;;;;;;5076156;28;20077;-90
2022/10/29 04:18:49;;;;;;;35.75;14.82;;;10.80;99.90;;;;;;5076094;28;20652;-90
2022/10/29 04:21:15;;;;;;;36.80;14.30;;;10.80;99.90;;;;;;5066670;28;20536;-91
2022/10/29 04:23:41;;;;;;;37.83;14.02;;;10.80;99.90;;;;;;5078252;28;20324;-91
2022/10/29 04:26:07;;;;;;;40.50;14.57;;;10.90;99.90;;;;;;5066299;28;20082;-90
2022/10/29 04:28:32;;;;;;;39.15;16.40;;;11.00;99.90;;;;;;5080158;28;20051;-90
2022/10/29 04:31:04;;;;;;;43.25;16.40;;;11.00;99.90;;;;;;5084371;28;20766;-90
2022/10/29 04:33:29;;;;;;;36.35;16.75;;;11.10;99.90;;;;;;5075648;28;20032;-90
2022/10/29 04:35:55;;;;;;;36.42;14.80;;;11.20;99.90;;;;;;5059576;28;20030;-90
2022/10/29 04:38:21;;;;;;;33.90;14.00;;;11.20;99.90;;;;;;5083553;28;20391;-90
2022/10/29 04:40:47;;;;;;;34.45;13.98;;;11.20;99.90;;;;;;5077086;28;20028;-90
2022/10/29 04:43:13;;;;;;;34.67;14.55;;;11.10;99.90;;;;;;5066860;28;20128;-90
2022/10/29 04:46:08;;;;;;;37.53;15.30;;;11.00;99.90;;;;;;5063550;28;20028;-91
2022/10/29 04:48:34;;;;;;;39.08;15.38;;;11.00;99.90;;;;;;5085011;28;20060;-90
2022/10/29 04:51:00;;;;;;;34.20;15.32;;;11.10;99.90;;;;;;5075187;28;20098;-89
2022/10/29 04:53:25;;;;;;;35.20;14.50;;;11.10;99.90;;;;;;5078988;28;20028;-89
2022/10/29 04:55:57;;;;;;;42.63;14.00;;;11.00;99.90;;;;;;5074762;28;20376;-90
2022/10/29 04:58:22;;;;;;;36.15;13.88;;;10.90;99.90;;;;;;5076479;28;20032;-91
2022/10/29 05:00:48;;;;;;;35.70;14.10;;;11.00;99.90;;;;;;5093098;28;20040;-90
2022/10/29 05:03:14;;;;;;;29.58;14.13;;;11.00;99.90;;;;;;5083373;28;20101;-90
2022/10/29 05:05:40;;;;;;;38.58;15.63;;;11.10;99.90;;;;;;5092241;28;20025;-90
2022/10/29 05:08:08;;;;;;;40.88;16.10;;;11.10;99.90;;;;;;5088442;28;20028;-90
2022/10/29 05:10:36;;;;;;;44.67;17.25;;;11.20;99.90;;;;;;5091545;28;20064;-90
2022/10/29 05:13:11;;;;;;;38.95;17.38;;;11.30;99.90;;;;;;5073684;28;20029;-90
2022/10/29 05:15:38;;;;;;;47.88;16.33;;;11.50;99.90;;;;;;5076115;28;20040;-90
2022/10/29 05:18:05;;;;;;;46.05;17.52;;;11.60;99.90;;;;;;5061882;28;20024;-90
2022/10/29 05:20:31;;;;;;;36.95;15.95;;;11.70;99.90;;;;;;5078575;28;20032;-91
2022/10/29 05:23:05;;;;;;;43.95;17.05;;;11.70;99.90;;;;;;5064696;28;20028;-90
2022/10/29 05:25:33;;;;;;;41.28;16.50;;;11.70;99.90;;;;;;5064215;28;20028;-91
2022/10/29 05:28:14;;;;;;;38.58;16.98;;;11.80;99.90;;;;;;5057571;28;20113;-89
2022/10/29 05:30:42;;;;;;;37.38;15.27;;;11.80;99.90;;;;;;5082989;28;20055;-90
2022/10/29 05:33:09;;;;;;;33.50;16.27;;;11.90;99.90;;;;;;5064144;28;20024;-90
2022/10/29 05:36:27;;;;;;;34.97;15.27;;;12.10;99.90;;;;;;5057957;28;20032;-90
2022/10/29 05:38:53;;;;;;;32.60;15.27;;;12.40;99.90;;;;;;5060396;28;20058;-90
2022/10/29 05:41:19;;;;;;;36.47;15.10;;;12.60;99.90;;;;;;5116339;27;20032;-89
2022/10/29 05:43:48;;;;;;;34.20;13.68;;;12.80;99.90;;;;;;5065513;28;20079;-90
2022/10/29 05:46:13;;;;;;;29.75;14.02;;;12.90;99.90;;;;;;5082372;28;20048;-91
2022/10/29 05:49:01;;;;;;;37.60;14.43;;;13.00;99.90;;;;;;5081455;28;20463;-90
2022/10/29 05:51:27;;;;;;;28.80;13.30;;;13.10;99.90;;;;;;5058226;28;20084;-90
2022/10/29 05:53:52;;;;;;;31.83;13.00;;;13.10;99.90;;;;;;5083249;28;20043;-90
2022/10/29 05:56:18;;;;;;;35.28;12.32;;;13.10;99.90;;;;;;5085985;28;20078;-90
2022/10/29 05:58:44;;;;;;;31.45;11.25;;;13.00;99.90;;;;;;5077855;28;20087;-91
2022/10/29 06:01:10;;;;;;;33.20;11.77;;;13.00;99.90;;;;;;5079403;28;20365;-91
2022/10/29 06:03:37;;;;;;;26.00;11.23;;;13.10;99.90;;;;;;5060927;28;20029;-91
2022/10/29 06:06:02;;;;;;;28.00;11.05;;;13.10;99.90;;;;;;5076323;28;20067;-91
2022/10/29 06:08:28;;;;;;;36.88;10.63;;;13.10;99.90;;;;;;5053468;28;20025;-90
2022/10/29 06:10:54;;;;;;;27.85;10.38;;;13.00;99.90;;;;;;5086316;28;20024;-89
2022/10/29 06:13:21;;;;;;;28.33;10.38;;;13.00;99.90;;;;;;5051148;28;20029;-90
2022/10/29 06:15:48;;;;;;;31.02;11.82;;;12.90;99.90;;;;;;5091229;28;20025;-90
2022/10/29 06:18:14;;;;;;;27.33;10.32;;;12.80;99.90;;;;;;5075080;28;20150;-90
2022/10/29 06:20:40;;;;;;;28.65;9.48;;;12.80;99.90;;;;;;5089612;28;20029;-90
2022/10/29 06:23:06;;;;;;;30.02;10.60;;;12.90;99.90;;;;;;5066673;28;20031;-90
2022/10/29 06:25:32;;;;;;;33.97;10.15;;;12.80;99.90;;;;;;5067425;28;20035;-88
2022/10/29 06:28:06;;;;;;;22.00;9.98;;;12.80;99.90;;;;;;5066790;28;20024;-89
2022/10/29 06:30:33;;;;;;;22.85;10.85;;;12.70;99.90;;;;;;5087417;28;20040;-90
2022/10/29 06:32:59;;;;;;;24.70;9.13;;;12.70;99.90;;;;;;5060188;28;20036;-89
2022/10/29 06:35:25;;;;;;;27.23;9.75;;;12.70;99.90;;;;;;5062118;28;20036;-89
2022/10/29 06:37:51;;;;;;;22.52;10.18;;;12.80;99.90;;;;;;5064886;28;20031;-90
2022/10/29 06:40:17;;;;;;;26.65;9.32;;;12.80;99.90;;;;;;5069385;28;20111;-91
2022/10/29 06:42:42;;;;;;;21.90;9.68;;;12.90;99.90;;;;;;5063104;28;20028;-89
2022/10/29 06:45:09;;;;;;;39.28;10.70;;;13.00;99.90;;;;;;5058899;28;20032;-90
2022/10/29 06:47:42;;;;;;;26.42;8.55;;;13.10;99.90;;;;;;5063520;28;20101;-90
2022/10/29 06:50:10;;;;;;;22.70;8.98;;;13.10;99.90;;;;;;5071859;28;20036;-89
2022/10/29 06:52:36;;;;;;;34.50;8.65;;;13.20;99.90;;;;;;5070806;28;20027;-89
2022/10/29 06:55:04;;;;;;;33.17;9.20;;;13.30;99.90;;;;;;5059262;28;20101;-89
2022/10/29 06:57:30;;;;;;;23.30;8.27;;;13.40;99.90;;;;;;5057132;28;20048;-91
2022/10/29 06:59:57;;;;;;;26.23;7.72;;;13.40;99.90;;;;;;5078337;28;20024;-90
2022/10/29 07:02:23;;;;;;;24.17;8.55;;;13.40;99.90;;;;;;5053379;28;20483;-89
2022/10/29 07:04:49;;;;;;;24.55;7.50;;;13.50;99.90;;;;;;5061995;28;20029;-90
2022/10/29 07:07:15;;;;;;;22.35;9.40;;;13.60;99.90;;;;;;5058483;28;20028;-88
2022/10/29 07:09:43;;;;;;;22.08;6.82;;;13.70;99.90;;;;;;5079577;28;20111;-91
2022/10/29 07:12:10;;;;;;;26.17;8.23;;;13.70;99.90;;;;;;5070678;28;20029;-90
2022/10/29 07:14:36;;;;;;;19.10;6.20;;;13.80;99.90;;;;;;5063297;28;20383;-90
2022/10/29 07:17:01;;;;;;;26.67;8.68;;;13.90;99.90;;;;;;5070799;28;20044;-91
2022/10/29 07:19:27;;;;;;;17.83;6.75;;;13.90;99.90;;;;;;5066122;28;20031;-88
2022/10/29 07:21:53;;;;;;;26.83;6.72;;;14.00;99.90;;;;;;5082865;28;20051;-89
2022/10/29 07:24:19;;;;;;;28.38;7.30;;;14.00;99.90;;;;;;5069630;28;20020;-90
2022/10/29 07:26:44;;;;;;;20.20;7.15;;;14.10;99.90;;;;;;5092839;28;20037;-90
2022/10/29 07:29:10;;;;;;;11.32;6.28;;;14.10;99.90;;;;;;5076907;28;20113;-90
2022/10/29 07:31:36;;;;;;;24.88;8.25;;;14.20;99.90;;;;;;5060400;28;20028;-86
2022/10/29 07:34:02;;;;;;;16.60;6.32;;;14.30;99.90;;;;;;5084136;28;20036;-85
2022/10/29 07:36:30;;;;;;;20.90;6.68;;;14.50;99.90;;;;;;5059319;28;20575;-85
2022/10/29 07:38:56;;;;;;;23.42;7.78;;;14.60;99.90;;;;;;5063531;28;20024;-85
2022/10/29 07:41:22;;;;;;;22.40;6.88;;;14.80;99.90;;;;;;5071710;28;20048;-86
2022/10/29 07:43:48;;;;;;;17.25;6.63;;;15.10;99.90;;;;;;5069534;28;20109;-87
2022/10/29 07:46:13;;;;;;;19.70;7.25;;;15.30;99.90;;;;;;5072320;28;20050;-86
2022/10/29 07:48:39;;;;;;;21.23;6.00;;;15.50;99.90;;;;;;5076277;28;20032;-85
2022/10/29 07:51:05;;;;;;;27.50;7.22;;;15.70;99.90;;;;;;5065109;28;20039;-86
2022/10/29 07:53:31;;;;;;;25.50;5.80;;;15.90;99.90;;;;;;5085857;28;20511;-85
2022/10/29 07:55:57;;;;;;;17.98;5.55;;;16.10;99.90;;;;;;5061229;28;20134;-86
2022/10/29 07:58:24;;;;;;;31.63;7.10;;;16.20;99.90;;;;;;5078791;28;20021;-86
2022/10/29 08:00:50;;;;;;;24.73;6.95;;;16.30;99.90;;;;;;5079187;28;20529;-85
2022/10/29 08:03:16;;;;;;;28.00;7.05;;;16.40;99.90;;;;;;5068619;28;20149;-85
2022/10/29 08:05:42;;;;;;;26.65;8.60;;;16.40;99.90;;;;;;5078371;28;20041;-86
2022/10/29 08:08:09;;;;;;;28.02;7.93;;;16.40;99.90;;;;;;5089065;28;20102;-85
2022/10/29 08:10:36;;;;;;;33.50;8.23;;;16.50;99.90;;;;;;5067798;28;20029;-85
2022/10/29 08:13:57;;;;;;;29.52;8.30;;;16.50;99.90;;;;;;5068629;28;20392;-85
2022/10/29 08:16:23;;;;;;;24.15;7.38;;;16.60;99.90;;;;;;5051765;28;20032;-85
2022/10/29 08:18:49;;;;;;;27.65;6.90;;;16.60;99.90;;;;;;5065269;28;20040;-86
2022/10/29 08:21:15;;;;;;;24.83;7.43;;;16.60;99.90;;;;;;5081640;28;20483;-85
2022/10/29 08:23:40;;;;;;;22.30;6.47;;;16.60;99.90;;;;;;5066628;28;20036;-85
2022/10/29 08:26:06;;;;;;;21.48;7.05;;;16.40;99.90;;;;;;5082192;28;20027;-85
2022/10/29 08:28:32;;;;;;;18.17;7.15;;;16.30;99.90;;;;;;5080665;28;20046;-86
2022/10/29 08:31:47;;;;;;;17.77;6.50;;;16.30;99.90;;;;;;5065694;28;20035;-86
2022/10/29 08:34:44;;;;;;;23.42;7.22;;;16.20;99.90;;;;;;5070329;28;20017;-86
2022/10/29 08:37:10;;;;;;;26.83;6.65;;;16.40;99.90;;;;;;5058885;28;20438;-85
2022/10/29 08:39:35;;;;;;;28.67;7.18;;;16.50;99.90;;;;;;5072342;28;20029;-86
2022/10/29 08:42:52;;;;;;;25.67;7.68;;;16.50;99.90;;;;;;5087618;28;20420;-86
2022/10/29 08:45:44;;;;;;;37.92;6.95;;;16.70;99.90;;;;;;5067412;28;20028;-86
2022/10/29 08:48:38;;;;;;;30.30;7.63;;;17.00;99.90;;;;;;5065609;28;20043;-86
2022/10/29 08:54:35;;;;;;;16.02;6.30;;;17.50;99.90;;;;;;5079429;28;20417;-86
2022/10/29 08:57:13;;;;;;;24.40;6.70;;;17.80;99.90;;;;;;5059027;28;20117;-87
2022/10/29 09:00:04;;;;;;;21.38;6.63;;;17.90;99.90;;;;;;5078460;28;20024;-86
2022/10/29 09:02:29;;;;;;;25.35;6.40;;;18.10;99.90;;;;;;5083912;28;20100;-86
2022/10/29 09:04:55;;;;;;;24.95;5.95;;;18.30;99.90;;;;;;5075524;28;20075;-87
2022/10/29 09:07:33;;;;;;;21.55;6.00;;;18.50;99.90;;;;;;5081825;28;20031;-87
2022/10/29 09:10:31;;;;;;;23.23;5.45;;;18.70;99.90;;;;;;5072038;28;20055;-86
2022/10/29 09:13:14;;;;;;;33.63;6.90;;;18.60;99.90;;;;;;5056552;28;20012;-86
2022/10/29 09:15:58;;;;;;;24.27;6.38;;;18.50;99.90;;;;;;5074937;28;20135;-85
2022/10/29 09:18:27;;;;;;;20.77;6.50;;;18.50;99.90;;;;;;5058766;28;20076;-86
2022/10/29 09:21:04;;;;;;;31.15;6.30;;;18.60;99.90;;;;;;5079126;28;20062;-86
2022/10/29 09:23:45;;;;;;;20.60;6.03;;;18.70;99.90;;;;;;5059600;28;20034;-86
2022/10/29 09:26:19;;;;;;;25.55;5.97;;;18.70;99.90;;;;;;5073201;28;20387;-86
2022/10/29 09:28:55;;;;;;;23.98;5.63;;;18.80;99.90;;;;;;5053714;28;20033;-86
2022/10/29 09:31:41;;;;;;;17.33;6.20;;;19.00;99.90;;;;;;5078759;28;20249;-86
2022/10/29 09:34:36;;;;;;;16.63;5.30;;;19.30;99.90;;;;;;5055326;28;20036;-86
2022/10/29 09:37:11;;;;;;;31.92;5.85;;;19.60;99.90;;;;;;5045076;28;20033;-86
2022/10/29 09:40:00;;;;;;;27.65;6.53;;;19.50;99.90;;;;;;5050985;28;20082;-87
2022/10/29 09:42:34;;;;;;;18.77;4.90;;;19.60;99.90;;;;;;5071164;28;20028;-85
2022/10/29 09:45:09;;;;;;;22.63;5.70;;;19.70;99.90;;;;;;5054471;28;20696;-85
2022/10/29 09:47:45;;;;;;;19.65;5.47;;;19.60;99.90;;;;;;5063495;28;20510;-84
2022/10/29 09:50:42;;;;;;;19.38;5.03;;;19.40;99.90;;;;;;5072163;28;20021;-84
2022/10/29 09:53:08;;;;;;;15.65;4.65;;;19.30;99.90;;;;;;5062442;28;20032;-85
2022/10/29 09:55:38;;;;;;;17.70;5.07;;;19.60;99.90;;;;;;5059846;28;20036;-84
2022/10/29 09:58:05;;;;;;;17.90;5.72;;;19.60;99.90;;;;;;5064991;28;20098;-84
2022/10/29 10:00:40;;;;;;;18.45;5.63;;;19.60;99.90;;;;;;5047463;28;20388;-84
2022/10/29 10:03:09;;;;;;;21.13;5.55;;;20.00;99.90;;;;;;5056822;28;20028;-85
2022/10/29 10:05:54;;;;;;;16.80;5.40;;;20.30;99.90;;;;;;5059682;28;20116;-84
2022/10/29 10:08:20;;;;;;;19.80;5.78;;;20.60;99.90;;;;;;5061235;28;20032;-85
2022/10/29 10:11:01;;;;;;;23.92;6.25;;;20.60;99.90;;;;;;5065612;28;20434;-85
2022/10/29 10:13:37;;;;;;;23.13;5.55;;;20.60;99.90;;;;;;5045750;28;20024;-84
2022/10/29 10:16:04;;;;;;;21.63;5.88;;;20.40;99.90;;;;;;5042637;28;20494;-84
2022/10/29 10:18:30;;;;;;;26.15;5.60;;;20.00;99.90;;;;;;5063782;28;20527;-84
2022/10/29 10:21:49;;;;;;;16.98;4.93;;;20.20;99.90;;;;;;5067866;28;20116;-84
2022/10/29 10:24:34;;;;;;;12.93;4.70;;;20.20;99.90;;;;;;5045302;28;20036;-85
2022/10/29 10:27:21;;;;;;;15.40;5.15;;;20.30;99.90;;;;;;5059960;28;20415;-85
2022/10/29 10:30:10;;;;;;;20.27;5.38;;;20.50;99.90;;;;;;5073632;28;20388;-86
2022/10/29 10:32:35;;;;;;;19.05;5.15;;;20.40;99.90;;;;;;5043418;28;20032;-85
2022/10/29 10:35:01;;;;;;;15.23;5.63;;;20.20;99.90;;;;;;5064843;28;20081;-85
2022/10/29 10:37:31;;;;;;;22.73;5.63;;;19.80;99.90;;;;;;5053214;28;20020;-84
2022/10/29 10:40:03;;;;;;;14.70;5.30;;;19.90;99.90;;;;;;5054578;28;20028;-84
2022/10/29 10:42:38;;;;;;;22.73;5.65;;;19.90;99.90;;;;;;5063864;28;20030;-85
2022/10/29 10:45:22;;;;;;;22.23;5.63;;;20.00;99.90;;;;;;5055846;28;20028;-85
2022/10/29 10:47:56;;;;;;;27.52;5.65;;;20.00;99.90;;;;;;5035616;28;20029;-84
2022/10/29 10:50:35;;;;;;;21.67;5.68;;;20.00;99.90;;;;;;5052027;28;20044;-85
2022/10/29 10:53:05;;;;;;;27.23;5.63;;;19.80;99.90;;;;;;5039404;28;20032;-84
2022/10/29 10:55:36;;;;;;;23.48;4.70;;;19.60;99.90;;;;;;5057596;28;20029;-85
2022/10/29 10:58:34;;;;;;;21.88;5.82;;;19.60;99.90;;;;;;5066665;28;20033;-85
2022/10/29 11:00:59;;;;;;;27.38;5.82;;;19.40;99.90;;;;;;5053381;28;20028;-86
2022/10/29 11:03:35;;;;;;;23.05;5.28;;;19.40;99.90;;;;;;5065329;28;20027;-86
2022/10/29 11:06:09;;;;;;;23.58;4.97;;;19.60;99.90;;;;;;5049704;28;20024;-86
2022/10/29 11:09:17;;;;;;;14.77;4.90;;;19.70;99.90;;;;;;5072291;28;20119;-86
2022/10/29 11:11:48;;;;;;;18.90;4.63;;;19.80;99.90;;;;;;5024080;28;20110;-87
2022/10/29 11:14:24;;;;;;;;;;;19.90;99.90;;;;;;5069352;28;20846;-85
2022/10/29 11:16:54;;;;;;;16.45;4.63;;;19.90;99.90;;;;;;5077029;28;19958;-85
2022/10/29 11:23:40;;;;;;;28.67;5.07;;;20.20;99.90;;;;;;5069418;28;20477;-85
2022/10/29 11:26:18;;;;;;;15.38;4.32;;;20.50;99.90;;;;;;5073958;28;20111;-85
2022/10/29 11:28:54;;;;;;;22.33;5.20;;;20.80;99.90;;;;;;5060087;28;20028;-85
2022/10/29 11:31:28;;;;;;;15.10;5.20;;;21.10;99.90;;;;;;5080612;28;20030;-85
2022/10/29 11:34:09;;;;;;;18.15;4.85;;;21.50;99.90;;;;;;5059087;28;20086;-85
2022/10/29 11:36:41;;;;;;;20.25;5.13;;;22.10;99.90;;;;;;5084804;28;20042;-85
2022/10/29 11:39:10;;;;;;;18.83;5.07;;;22.20;99.90;;;;;;5058350;28;20070;-86
2022/10/29 11:41:54;;;;;;;17.40;4.13;;;22.00;99.90;;;;;;5069630;28;20070;-85
2022/10/29 11:44:20;;;;;;;12.75;4.47;;;21.90;99.90;;;;;;5061398;28;20522;-86
2022/10/29 11:46:52;;;;;;;22.88;5.40;;;22.10;99.90;;;;;;5073316;28;20033;-85
2022/10/29 11:49:33;;;;;;;26.73;5.03;;;22.10;99.90;;;;;;5066147;28;20119;-85
2022/10/29 11:52:09;;;;;;;20.95;5.40;;;22.00;99.90;;;;;;5068719;28;20024;-85
2022/10/29 11:54:39;;;;;;;20.77;5.30;;;21.90;99.90;;;;;;5071440;28;20040;-85
2022/10/29 11:57:17;;;;;;;18.73;5.87;;;21.80;99.90;;;;;;5067144;28;20035;-86
2022/10/29 12:00:08;;;;;;;16.00;4.93;;;21.80;99.90;;;;;;5078721;28;20408;-84
2022/10/29 12:03:01;;;;;;;20.88;5.55;;;21.60;99.90;;;;;;5085240;28;20174;-85
2022/10/29 12:05:34;;;;;;;18.92;5.00;;;21.50;99.90;;;;;;5058755;28;20021;-84
2022/10/29 12:08:11;;;;;;;15.15;5.13;;;21.40;99.90;;;;;;5058120;28;20479;-85
2022/10/29 12:10:37;;;;;;;12.25;5.30;;;21.40;99.90;;;;;;5074402;28;20068;-85
2022/10/29 12:13:09;;;;;;;21.52;5.97;;;21.30;99.90;;;;;;5090115;28;20372;-85
2022/10/29 12:15:49;;;;;;;25.00;6.13;;;21.20;99.90;;;;;;5058752;28;20136;-85
2022/10/29 12:18:30;;;;;;;17.13;5.32;;;21.20;99.90;;;;;;5061915;28;20027;-86
2022/10/29 12:21:31;;;;;;;24.13;6.90;;;21.20;99.90;;;;;;5081597;28;20364;-86
2022/10/29 12:24:16;;;;;;;;;;;21.20;99.90;;;;;;5061108;28;20032;-85
2022/10/29 12:26:51;;;;;;;22.88;7.40;;;21.00;99.90;;;;;;5082629;28;19912;-85
2022/10/29 12:29:47;;;;;;;27.15;6.18;;;21.00;99.90;;;;;;5084599;28;20028;-85
2022/10/29 12:32:17;;;;;;;24.27;6.50;;;21.10;99.90;;;;;;5059669;28;20060;-85
2022/10/29 12:34:50;;;;;;;18.73;5.72;;;21.10;99.90;;;;;;5074894;28;20488;-86
2022/10/29 12:37:18;;;;;;;25.77;5.97;;;21.10;99.90;;;;;;5075480;28;20032;-85
2022/10/29 12:39:49;;;;;;;18.65;6.30;;;21.20;99.90;;;;;;5089712;28;20028;-85
2022/10/29 12:42:25;;;;;;;28.33;7.30;;;21.30;99.90;;;;;;5041111;28;20028;-85
2022/10/29 12:45:06;;;;;;;19.77;5.90;;;21.40;99.90;;;;;;5066193;28;20079;-85
2022/10/29 12:47:59;;;;;;;19.65;6.60;;;21.40;99.90;;;;;;5057174;28;20032;-85
2022/10/29 12:50:33;;;;;;;33.45;7.65;;;21.20;99.90;;;;;;5072964;28;20041;-84
2022/10/29 12:53:25;;;;;;;23.95;7.53;;;21.10;99.90;;;;;;5063773;28;20048;-86
2022/10/29 12:55:51;;;;;;;46.20;7.47;;;21.20;99.90;;;;;;5058811;28;20025;-85
2022/10/29 12:58:42;;;;;;;18.52;6.68;;;21.20;99.90;;;;;;5054765;28;20503;-85
2022/10/29 13:01:26;;;;;;;30.92;7.50;;;21.20;99.90;;;;;;5066814;28;20021;-86
2022/10/29 13:03:51;;;;;;;21.88;6.75;;;21.20;99.90;;;;;;5060972;28;20069;-85
2022/10/29 13:06:42;;;;;;;25.63;7.25;;;21.00;99.90;;;;;;5060740;28;20487;-86
2022/10/29 13:09:14;;;;;;;23.70;7.30;;;20.90;99.90;;;;;;5063350;28;20460;-85
2022/10/29 13:11:48;;;;;;;25.25;7.30;;;20.90;99.90;;;;;;5064774;28;20271;-85
2022/10/29 13:14:23;;;;;;;18.45;7.07;;;20.70;99.90;;;;;;5056521;28;20088;-85